Airfield :
LOGIN :

Register | Disclaimer

   EN    FR    IT 

 










Legend :    VFR   Marginal VFR   IFR   Intensive IFR   Very Intensive IFR
Visi :
Ceiling :
>= 8 km
>= 3000ft
5 to 8 km
1000 to 3000 ft
1500m to 5 km
500 to 1000 ft
800 to 1500m
200 to 500 ft
< 800m
< 200 ft
Symbols :   Thunderstorms  Fog  Heavy snow  Heavy precipitations  Wind > 20 kt
SIGMETs :     Misc.  Thunderstorms  Icing  Turbulence  Mountain Waves  Volcanic Ashes






- Airport Elevation : 616 ft
- IATA code : PUF


LFBP - Pau

CURRENT METAR :
  • 232230Z AUTO 23002KT 5000 BR SCT019 BKN028 BKN037 11/11 Q1008 TEMPO 0800 FG VV///

EXPIRED METARs :
  • 232200Z AUTO VRB02KT 3100 BR BKN022 BKN035 BKN220 11/11 Q1008 TEMPO 0800 FG VV///
  • 232130Z AUTO VRB01KT 5000 2400 R13/0800D BR FEW001 BKN220 BKN240 11/11 Q1007 NOSIG
  • 232100Z AUTO VRB03KT 6000 NSC 12/11 Q1007 NOSIG
  • 232030Z AUTO 00000KT 8000 FEW033 SCT092 BKN120 12/11 Q1007 NOSIG
  • 232000Z AUTO 11005KT 9999 SCT068/// SCT100/// BKN130/// ///TCU 12/12 Q1007 TEMPO 4000 SHRA BECMG SCT012 BKN040

TAF AMD TAF LFBP
Valid from the 23 at 21:00 until the 24 at 18:00 UTC


232135Z 2321/2418 VRB02KT CAVOK
PROB40 2321/2404 3000 BR
PROB30
TEMPO 2323/2403 0800 FG VV///
BECMG 2404/2405 27010KT BKN040
PROB30
TEMPO 2405/2410 4000 -RA BKN015



MET'MAP, your aeronautical weather chart ! - Copyright ORBIFLY December 2007 - Disclaimer

ORBIFLY MET'MAP TEAM :

Programming & Development : Alexandra Zaïnal
Concept & Development : Baudouin d'Aumeries
Co-Development & Prog : Marc-Olivier Méhu
Technical & hardware support : Manuel Goepfert

Contact : metmap@orbifly.com




SOURCES & CREDITS :

   NOAA